createdAt,value
2023-03-04T00:00:00.278Z,7.80
2023-03-04T00:02:27.033Z,8.27
2023-03-04T00:04:53.789Z,8.43
2023-03-04T00:07:20.561Z,8.07
2023-03-04T00:09:47.410Z,8.20
2023-03-04T00:12:14.387Z,8.30
2023-03-04T00:14:41.428Z,9.50
2023-03-04T00:17:08.925Z,8.10
2023-03-04T00:19:35.954Z,8.60
2023-03-04T00:22:04.635Z,8.80
2023-03-04T00:24:32.187Z,8.20
2023-03-04T00:26:59.018Z,7.87
2023-03-04T00:29:26.181Z,8.83
2023-03-04T00:31:53.255Z,8.37
2023-03-04T00:34:20.944Z,8.90
2023-03-04T00:36:48.052Z,8.20
2023-03-04T00:39:14.813Z,8.73
2023-03-04T00:41:41.591Z,8.20
2023-03-04T00:44:08.620Z,8.60
2023-03-04T00:46:35.362Z,8.57
2023-03-04T00:49:02.235Z,7.97
2023-03-04T00:51:29.040Z,8.13
2023-03-04T00:53:55.869Z,7.90
2023-03-04T00:56:22.605Z,8.60
2023-03-04T00:58:49.337Z,8.07
2023-03-04T01:01:16.181Z,8.13
2023-03-04T01:03:43.335Z,8.70
2023-03-04T01:06:11.146Z,8.90
2023-03-04T01:08:38.590Z,8.20
2023-03-04T01:11:05.935Z,8.50
2023-03-04T01:13:33.299Z,8.60
2023-03-04T01:16:00.242Z,8.93
2023-03-04T01:18:27.114Z,8.97
2023-03-04T01:20:53.830Z,10.17
2023-03-04T01:23:20.688Z,9.87
2023-03-04T01:25:47.398Z,9.07
2023-03-04T01:28:14.647Z,9.90
2023-03-04T01:30:41.824Z,9.57
2023-03-04T01:33:08.779Z,9.77
2023-03-04T01:35:35.549Z,9.03
2023-03-04T01:38:02.417Z,9.23
2023-03-04T01:40:29.614Z,10.07
2023-03-04T01:42:56.367Z,9.77
2023-03-04T01:45:23.305Z,10.40
2023-03-04T01:47:51.665Z,9.30
2023-03-04T01:50:30.795Z,10.13
2023-03-04T01:52:57.745Z,9.33
2023-03-04T01:55:25.035Z,9.80
2023-03-04T01:57:53.724Z,10.17
2023-03-04T02:00:35.580Z,11.00
2023-03-04T02:03:12.426Z,9.80
2023-03-04T02:05:44.333Z,9.83
2023-03-04T02:08:13.938Z,9.50
2023-03-04T02:10:43.420Z,10.73
2023-03-04T02:13:11.322Z,9.97
2023-03-04T02:15:38.798Z,10.17
2023-03-04T02:18:15.704Z,9.93
2023-03-04T02:21:27.293Z,10.13
2023-03-04T02:24:09.093Z,9.67
2023-03-04T02:26:36.977Z,11.27
2023-03-04T02:29:04.565Z,10.27
2023-03-04T02:31:47.855Z,10.20
2023-03-04T02:34:35.794Z,9.83
2023-03-04T02:37:04.125Z,9.70
2023-03-04T02:39:40.550Z,11.17
2023-03-04T02:42:08.222Z,9.97
2023-03-04T02:44:39.239Z,10.73
2023-03-04T02:47:10.778Z,9.77
2023-03-04T02:49:41.188Z,9.47
2023-03-04T02:52:18.615Z,10.00
2023-03-04T02:54:45.853Z,10.13
2023-03-04T02:57:14.921Z,10.57
2023-03-04T02:59:42.756Z,9.73
2023-03-04T03:02:10.386Z,10.10
2023-03-04T03:04:39.775Z,9.73
2023-03-04T03:07:07.337Z,10.37
2023-03-04T03:09:34.147Z,9.30
2023-03-04T03:12:00.866Z,8.97
2023-03-04T03:14:27.588Z,9.60
2023-03-04T03:16:54.325Z,9.40
2023-03-04T03:19:21.092Z,9.20
2023-03-04T03:21:47.833Z,9.60
2023-03-04T03:24:15.171Z,10.10
2023-03-04T03:26:41.905Z,10.00
2023-03-04T03:29:08.639Z,9.67
2023-03-04T03:31:35.376Z,8.80
2023-03-04T03:34:02.159Z,9.67
2023-03-04T03:36:28.975Z,9.90
2023-03-04T03:38:55.764Z,9.83
2023-03-04T03:41:22.507Z,8.97
2023-03-04T03:43:49.292Z,9.13
2023-03-04T03:46:16.002Z,9.73
2023-03-04T03:48:42.721Z,9.30
2023-03-04T03:51:09.468Z,9.43
2023-03-04T03:53:36.273Z,9.13
2023-03-04T03:56:04.099Z,9.40
2023-03-04T03:58:30.931Z,9.33
2023-03-04T04:00:58.591Z,9.80
2023-03-04T04:03:26.140Z,9.37
2023-03-04T04:05:53.197Z,9.47
2023-03-04T04:08:19.986Z,8.70
2023-03-04T04:10:46.747Z,9.90
2023-03-04T04:13:13.497Z,10.90
2023-03-04T04:15:40.214Z,11.27
2023-03-04T04:18:07.824Z,11.00
2023-03-04T04:20:35.342Z,12.00
2023-03-04T04:23:03.620Z,11.37
2023-03-04T04:25:30.359Z,11.50
2023-03-04T04:27:57.116Z,10.83
2023-03-04T04:30:24.373Z,11.03
2023-03-04T04:32:51.701Z,10.53
2023-03-04T04:35:18.754Z,10.30
2023-03-04T04:37:45.508Z,10.27
2023-03-04T04:40:12.817Z,11.17
2023-03-04T04:42:39.548Z,9.83
2023-03-04T04:45:07.459Z,10.67
2023-03-04T04:47:34.188Z,9.83
2023-03-04T04:50:01.066Z,10.67
2023-03-04T04:52:27.810Z,9.67
2023-03-04T04:54:54.497Z,10.30
2023-03-04T04:57:21.752Z,9.50
2023-03-04T04:59:48.561Z,10.37
2023-03-04T05:02:15.410Z,9.43
2023-03-04T05:04:42.163Z,10.33
2023-03-04T05:07:08.939Z,9.70
2023-03-04T05:09:35.646Z,10.50
2023-03-04T05:12:02.434Z,9.63
2023-03-04T05:14:29.166Z,9.40
2023-03-04T05:16:55.957Z,9.97
2023-03-04T05:19:22.868Z,9.83
2023-03-04T05:21:49.611Z,11.57
2023-03-04T05:24:16.515Z,9.80
2023-03-04T05:26:43.271Z,10.13
2023-03-04T05:29:10.033Z,10.97
2023-03-04T05:31:36.746Z,10.20
2023-03-04T05:34:03.556Z,9.77
2023-03-04T05:36:30.298Z,9.70
2023-03-04T05:38:57.364Z,9.80
2023-03-04T05:41:24.188Z,10.40
2023-03-04T05:43:51.069Z,9.80
2023-03-04T05:46:25.162Z,10.23
2023-03-04T05:48:53.570Z,9.83
2023-03-04T05:51:22.019Z,9.77
2023-03-04T05:53:49.704Z,10.10
2023-03-04T05:56:19.828Z,9.83
2023-03-04T05:58:47.584Z,9.60
2023-03-04T06:01:15.465Z,10.77
2023-03-04T06:03:45.246Z,10.00
2023-03-04T06:06:12.065Z,10.43
2023-03-04T06:08:38.810Z,10.37
2023-03-04T06:11:06.225Z,10.23
2023-03-04T06:13:36.431Z,9.80
2023-03-04T06:16:03.350Z,11.27
2023-03-04T06:18:30.283Z,11.00
2023-03-04T06:21:02.110Z,11.30
2023-03-04T06:23:30.369Z,11.40
2023-03-04T06:25:59.981Z,11.60
2023-03-04T06:28:27.242Z,11.60
2023-03-04T06:30:56.593Z,10.83
2023-03-04T06:33:23.427Z,10.30
2023-03-04T06:35:55.719Z,11.60
2023-03-04T06:38:23.205Z,11.60
2023-03-04T06:40:50.065Z,11.50
2023-03-04T06:43:16.853Z,10.83
2023-03-04T06:45:43.888Z,10.47
2023-03-04T06:48:10.880Z,12.47
2023-03-04T06:50:40.126Z,11.80
2023-03-04T06:53:06.848Z,11.90
2023-03-04T06:55:33.575Z,13.67
2023-03-04T06:58:00.290Z,12.53
2023-03-04T07:00:27.081Z,12.23
2023-03-04T07:02:55.238Z,11.87
2023-03-04T07:05:22.083Z,11.17
2023-03-04T07:07:49.509Z,11.27
2023-03-04T07:10:19.792Z,11.70
2023-03-04T07:12:46.909Z,13.10
2023-03-04T07:15:13.916Z,11.60
2023-03-04T07:17:41.182Z,10.63
2023-03-04T07:20:08.801Z,11.17
2023-03-04T07:22:35.560Z,13.30
2023-03-04T07:25:02.333Z,11.57
2023-03-04T07:27:29.071Z,11.07
2023-03-04T07:29:55.819Z,11.93
2023-03-04T07:32:22.687Z,11.67
2023-03-04T07:34:49.483Z,11.20
2023-03-04T07:37:16.197Z,11.67
2023-03-04T07:39:42.958Z,10.83
2023-03-04T07:42:09.762Z,11.50
2023-03-04T07:44:36.510Z,12.83
2023-03-04T07:47:03.318Z,11.90
2023-03-04T07:49:30.012Z,11.30
2023-03-04T07:51:56.868Z,11.47
2023-03-04T07:54:23.611Z,11.90
2023-03-04T07:56:50.327Z,11.33
2023-03-04T07:59:17.064Z,10.87
2023-03-04T08:01:45.564Z,11.17
2023-03-04T08:04:12.609Z,12.40
2023-03-04T08:06:41.765Z,11.03
2023-03-04T08:09:10.818Z,11.03
2023-03-04T08:11:38.372Z,11.43
2023-03-04T08:14:06.131Z,10.63
2023-03-04T08:16:33.312Z,10.30
2023-03-04T08:19:03.979Z,11.07
2023-03-04T08:21:31.336Z,12.20
2023-03-04T08:24:01.621Z,11.47
2023-03-04T08:26:40.619Z,11.50
2023-03-04T08:29:12.539Z,10.90
2023-03-04T08:31:39.719Z,11.80
2023-03-04T08:34:08.371Z,11.57
2023-03-04T08:36:35.220Z,11.63
2023-03-04T08:39:03.542Z,12.20
2023-03-04T08:41:30.346Z,12.00
2023-03-04T08:43:57.223Z,12.50
2023-03-04T08:46:23.998Z,11.80
2023-03-04T08:48:50.832Z,12.93
2023-03-04T08:51:17.763Z,11.70
2023-03-04T08:53:44.726Z,12.30
2023-03-04T08:56:13.122Z,11.37
2023-03-04T08:58:40.570Z,12.13
2023-03-04T09:01:13.331Z,10.30
2023-03-04T09:03:41.281Z,11.00
2023-03-04T09:06:10.056Z,11.63
2023-03-04T09:08:36.843Z,11.53
2023-03-04T09:11:04.309Z,12.77
2023-03-04T09:13:32.425Z,11.70
2023-03-04T09:15:59.748Z,11.40
2023-03-04T09:18:28.107Z,11.87
2023-03-04T09:20:55.382Z,11.57
2023-03-04T09:23:22.716Z,12.53
2023-03-04T09:25:49.762Z,11.90
2023-03-04T09:28:18.109Z,11.60
2023-03-04T09:30:45.263Z,10.03
2023-03-04T09:33:12.962Z,11.40
2023-03-04T09:35:39.936Z,11.50
2023-03-04T09:38:07.015Z,11.00
2023-03-04T09:40:44.306Z,11.43
2023-03-04T09:43:29.318Z,11.63
2023-03-04T09:46:02.922Z,11.00
2023-03-04T09:48:46.638Z,11.20
2023-03-04T09:51:42.479Z,11.00
2023-03-04T09:54:37.265Z,10.43
2023-03-04T09:57:30.904Z,11.83
2023-03-04T10:00:19.826Z,11.90
2023-03-04T10:03:05.436Z,11.50
2023-03-04T10:05:39.322Z,12.70
2023-03-04T10:09:01.334Z,12.17
2023-03-04T10:11:50.788Z,10.60
2023-03-04T10:14:23.357Z,10.23
2023-03-04T10:17:14.550Z,11.13
2023-03-04T10:19:56.305Z,11.50
2023-03-04T10:22:36.117Z,13.10
2023-03-04T10:25:21.663Z,12.53
2023-03-04T10:28:04.682Z,10.90
2023-03-04T10:30:59.765Z,10.33
2023-03-04T10:33:39.353Z,10.90
2023-03-04T10:36:38.286Z,9.83
2023-03-04T10:39:16.683Z,10.40
2023-03-04T10:41:56.802Z,11.07
2023-03-04T10:44:26.185Z,10.27
2023-03-04T10:46:56.885Z,9.53
2023-03-04T10:49:26.147Z,10.40
2023-03-04T10:52:14.960Z,11.33
2023-03-04T10:54:49.931Z,10.37
2023-03-04T10:57:26.901Z,11.23
2023-03-04T11:00:24.134Z,10.33
2023-03-04T11:02:51.014Z,10.13
2023-03-04T11:05:24.502Z,10.33
2023-03-04T11:08:00.829Z,11.33
2023-03-04T11:10:40.959Z,11.43
2023-03-04T11:13:18.724Z,11.40
2023-03-04T11:16:23.494Z,10.30
2023-03-04T11:19:00.300Z,10.30
2023-03-04T11:21:34.217Z,10.33
2023-03-04T11:24:28.425Z,10.97
2023-03-04T11:27:12.285Z,10.37
2023-03-04T11:29:55.919Z,10.40
2023-03-04T11:32:39.635Z,9.03
2023-03-04T11:35:45.682Z,10.70
2023-03-04T11:38:30.959Z,8.70
2023-03-04T11:41:16.597Z,10.77
2023-03-04T11:43:46.709Z,10.77
2023-03-04T11:46:25.836Z,10.10
2023-03-04T11:49:19.271Z,8.53
2023-03-04T11:52:07.073Z,8.83
2023-03-04T11:55:08.218Z,9.93
2023-03-04T11:58:16.923Z,10.10
2023-03-04T12:01:12.935Z,8.53
2023-03-04T12:04:16.480Z,8.67
2023-03-04T12:07:09.261Z,8.83
2023-03-04T12:10:09.263Z,8.77
2023-03-04T12:13:31.083Z,10.10
2023-03-04T12:16:41.399Z,9.67
2023-03-04T12:19:32.329Z,8.93
2023-03-04T12:22:00.131Z,8.80
2023-03-04T12:25:03.659Z,9.30
2023-03-04T12:27:42.307Z,10.47
2023-03-04T12:30:46.221Z,10.17
2023-03-04T12:33:38.564Z,9.43
2023-03-04T12:36:59.356Z,8.43
2023-03-04T12:39:47.553Z,8.70
2023-03-04T12:42:41.867Z,9.13
2023-03-04T12:45:32.353Z,9.37
2023-03-04T12:48:30.531Z,9.80
2023-03-04T12:51:20.624Z,8.00
2023-03-04T12:54:05.618Z,8.10
2023-03-04T12:57:00.487Z,8.63
2023-03-04T12:59:36.577Z,8.97
2023-03-04T13:02:45.230Z,8.43
2023-03-04T13:05:47.986Z,9.60
2023-03-04T13:08:55.271Z,10.27
2023-03-04T13:11:31.124Z,8.87
2023-03-04T13:14:14.787Z,9.60
2023-03-04T13:16:46.694Z,9.03
2023-03-04T13:19:52.693Z,9.17
2023-03-04T13:22:40.143Z,9.80
2023-03-04T13:25:36.252Z,10.10
2023-03-04T13:28:02.915Z,11.57
2023-03-04T13:30:32.491Z,9.13
2023-03-04T13:33:21.586Z,10.03
2023-03-04T13:36:01.776Z,10.43
2023-03-04T13:38:28.889Z,8.30
2023-03-04T13:41:22.551Z,9.50
2023-03-04T13:44:03.494Z,9.20
2023-03-04T13:46:42.775Z,8.73
2023-03-04T13:49:24.573Z,8.67
2023-03-04T13:51:52.653Z,8.83
2023-03-04T13:54:19.531Z,10.13
2023-03-04T13:56:48.237Z,8.07
2023-03-04T13:59:45.320Z,8.67
2023-03-04T14:02:22.613Z,7.87
2023-03-04T14:05:00.750Z,10.17
2023-03-04T14:07:36.974Z,9.87
2023-03-04T14:10:12.835Z,9.10
2023-03-04T14:12:55.573Z,8.90
2023-03-04T14:15:28.312Z,9.00
2023-03-04T14:17:58.796Z,8.07
2023-03-04T14:20:30.956Z,7.53
2023-03-04T14:23:01.611Z,8.13
2023-03-04T14:25:37.014Z,7.20
2023-03-04T14:28:08.407Z,8.40
2023-03-04T14:30:42.850Z,10.37
2023-03-04T14:33:21.800Z,9.60
2023-03-04T14:35:53.786Z,9.50
2023-03-04T14:38:32.035Z,11.07
2023-03-04T14:41:10.619Z,9.97
2023-03-04T14:43:53.829Z,9.37
2023-03-04T14:46:26.354Z,11.47
2023-03-04T14:48:56.689Z,9.23
2023-03-04T14:51:54.685Z,10.40
2023-03-04T14:54:38.138Z,11.10
2023-03-04T14:57:29.743Z,10.23
2023-03-04T14:59:56.537Z,9.70
2023-03-04T15:02:41.113Z,11.00
2023-03-04T15:05:25.533Z,8.70
2023-03-04T15:08:22.423Z,9.40
2023-03-04T15:11:02.477Z,9.80
2023-03-04T15:13:43.850Z,9.90
2023-03-04T15:16:13.804Z,9.50
2023-03-04T15:19:00.344Z,9.23
2023-03-04T15:21:31.634Z,8.53
2023-03-04T15:23:58.724Z,9.10
2023-03-04T15:26:27.019Z,9.87
2023-03-04T15:28:53.896Z,8.70
2023-03-04T15:31:24.567Z,10.10
2023-03-04T15:33:52.540Z,8.73
2023-03-04T15:36:22.505Z,8.80
2023-03-04T15:38:52.176Z,9.33
2023-03-04T15:41:25.949Z,10.20
2023-03-04T15:43:54.452Z,9.20
2023-03-04T15:46:21.883Z,9.67
2023-03-04T15:48:50.139Z,8.07
2023-03-04T15:51:22.252Z,8.97
2023-03-04T15:53:56.133Z,9.67
2023-03-04T15:56:32.529Z,8.33
2023-03-04T15:59:06.462Z,9.70
2023-03-04T16:01:33.276Z,9.27
2023-03-04T16:04:00.149Z,9.13
2023-03-04T16:06:32.077Z,9.13
2023-03-04T16:09:00.561Z,9.37
2023-03-04T16:11:32.644Z,9.00
2023-03-04T16:13:59.450Z,10.67
2023-03-04T16:16:26.191Z,8.53
2023-03-04T16:18:52.951Z,9.17
2023-03-04T16:21:23.193Z,8.60
2023-03-04T16:23:52.420Z,8.60
2023-03-04T16:26:23.285Z,8.53
2023-03-04T16:28:51.309Z,9.00
2023-03-04T16:31:19.623Z,9.37
2023-03-04T16:33:46.391Z,9.93
2023-03-04T16:36:23.047Z,9.57
2023-03-04T16:38:51.564Z,9.10
2023-03-04T16:41:24.592Z,8.80
2023-03-04T16:43:51.648Z,9.77
2023-03-04T16:46:18.444Z,9.63
2023-03-04T16:48:47.582Z,10.35
2023-03-04T16:51:19.392Z,8.87
2023-03-04T16:53:57.892Z,9.30
2023-03-04T16:56:24.658Z,8.47
2023-03-04T16:58:54.139Z,9.37
2023-03-04T17:01:29.456Z,8.80
2023-03-04T17:03:56.622Z,9.73
2023-03-04T17:06:24.255Z,10.47
2023-03-04T17:08:51.118Z,8.60
2023-03-04T17:11:23.074Z,8.43
2023-03-04T17:13:51.325Z,9.03
2023-03-04T17:16:18.446Z,9.70
2023-03-04T17:18:46.115Z,8.80
2023-03-04T17:21:17.556Z,10.73
2023-03-04T17:23:44.523Z,9.53
2023-03-04T17:26:11.805Z,10.90
2023-03-04T17:28:38.833Z,9.80
2023-03-04T17:31:14.725Z,10.70
2023-03-04T17:33:45.618Z,9.47
2023-03-04T17:36:14.614Z,10.13
2023-03-04T17:38:42.144Z,8.50
2023-03-04T17:41:16.061Z,9.57
2023-03-04T17:43:49.164Z,9.33
2023-03-04T17:46:20.936Z,8.87
2023-03-04T17:48:48.698Z,8.50
2023-03-04T17:51:15.681Z,9.20
2023-03-04T17:53:42.526Z,8.37
2023-03-04T17:56:12.264Z,8.87
2023-03-04T17:58:39.247Z,9.83
2023-03-04T18:01:17.587Z,8.67
2023-03-04T18:03:44.470Z,8.97
2023-03-04T18:06:11.577Z,8.80
2023-03-04T18:08:38.335Z,8.00
2023-03-04T18:11:05.342Z,8.07
2023-03-04T18:13:32.149Z,7.60
2023-03-04T18:15:58.962Z,8.13
2023-03-04T18:18:25.763Z,7.80
2023-03-04T18:20:59.141Z,7.67
2023-03-04T18:23:28.169Z,8.50
2023-03-04T18:25:55.609Z,8.40
2023-03-04T18:28:23.145Z,7.80
2023-03-04T18:30:53.935Z,7.63
2023-03-04T18:33:21.649Z,8.60
2023-03-04T18:35:48.866Z,9.10
2023-03-04T18:38:16.238Z,8.63
2023-03-04T18:40:44.464Z,8.63
2023-03-04T18:43:11.229Z,10.07
2023-03-04T18:45:38.088Z,8.80
2023-03-04T18:48:05.578Z,8.50
2023-03-04T18:50:32.345Z,9.47
2023-03-04T18:52:59.236Z,8.93
2023-03-04T18:55:26.750Z,14.00
2023-03-04T18:57:57.853Z,10.07
2023-03-04T19:00:25.249Z,8.60
2023-03-04T19:03:12.114Z,9.50
2023-03-04T19:05:39.213Z,8.13
2023-03-04T19:08:06.878Z,7.80
2023-03-04T19:10:33.905Z,9.30
2023-03-04T19:13:02.183Z,9.73
2023-03-04T19:15:29.123Z,8.97
2023-03-04T19:17:55.874Z,9.13
2023-03-04T19:20:23.004Z,8.60
2023-03-04T19:22:50.759Z,8.30
2023-03-04T19:25:17.873Z,8.30
2023-03-04T19:27:44.638Z,8.80
2023-03-04T19:30:12.174Z,9.27
2023-03-04T19:32:38.895Z,8.53
2023-03-04T19:35:06.345Z,8.00
2023-03-04T19:37:33.136Z,8.33
2023-03-04T19:40:00.151Z,8.83
2023-03-04T19:42:26.908Z,8.40
2023-03-04T19:44:53.803Z,8.40
2023-03-04T19:47:20.522Z,8.23
2023-03-04T19:49:47.329Z,8.63
2023-03-04T19:52:14.048Z,8.20
2023-03-04T19:54:40.748Z,8.17
2023-03-04T19:57:07.644Z,8.33
2023-03-04T19:59:35.811Z,7.50
2023-03-04T20:02:02.879Z,7.63
2023-03-04T20:04:29.679Z,9.77
2023-03-04T20:06:56.396Z,9.20
2023-03-04T20:09:23.211Z,8.07
2023-03-04T20:11:59.338Z,8.17
2023-03-04T20:14:27.947Z,9.07
2023-03-04T20:17:00.494Z,9.07
2023-03-04T20:19:27.518Z,8.93
2023-03-04T20:21:54.307Z,8.10
2023-03-04T20:24:22.996Z,8.30
2023-03-04T20:26:50.650Z,8.70
2023-03-04T20:29:18.465Z,8.63
2023-03-04T20:31:46.389Z,7.83
2023-03-04T20:34:13.327Z,9.37
2023-03-04T20:36:40.222Z,8.80
2023-03-04T20:39:27.062Z,10.47
2023-03-04T20:41:55.569Z,10.40
2023-03-04T20:44:22.569Z,9.70
2023-03-04T20:46:49.302Z,8.37
2023-03-04T20:49:26.523Z,9.93
2023-03-04T20:52:00.097Z,9.60
2023-03-04T20:54:26.841Z,9.50
2023-03-04T20:56:53.563Z,9.83
2023-03-04T20:59:20.738Z,10.83
2023-03-04T21:01:48.732Z,10.83
2023-03-04T21:04:16.366Z,10.37
2023-03-04T21:06:44.956Z,10.10
2023-03-04T21:09:16.152Z,10.13
2023-03-04T21:11:43.689Z,10.87
2023-03-04T21:14:27.289Z,10.43
2023-03-04T21:17:00.672Z,9.63
2023-03-04T21:19:35.591Z,9.87
2023-03-04T21:22:03.891Z,10.57
2023-03-04T21:24:34.196Z,10.50
2023-03-04T21:27:02.212Z,10.50
2023-03-04T21:29:29.044Z,11.23
2023-03-04T21:32:22.403Z,10.80
2023-03-04T21:34:52.573Z,9.90
2023-03-04T21:37:21.678Z,9.67
2023-03-04T21:39:48.499Z,11.13
2023-03-04T21:42:15.372Z,9.87
2023-03-04T21:44:50.694Z,11.10
2023-03-04T21:47:19.518Z,11.17
2023-03-04T21:49:46.441Z,9.10
2023-03-04T21:52:13.286Z,9.30
2023-03-04T21:54:40.024Z,10.23
2023-03-04T21:57:06.747Z,9.73
2023-03-04T21:59:33.512Z,10.70
2023-03-04T22:02:01.127Z,11.23
2023-03-04T22:04:27.917Z,10.87
2023-03-04T22:06:54.652Z,11.57
2023-03-04T22:09:21.497Z,11.50
2023-03-04T22:11:48.229Z,11.30
2023-03-04T22:14:14.955Z,11.70
2023-03-04T22:16:54.661Z,11.37
2023-03-04T22:19:24.471Z,11.30
2023-03-04T22:21:51.695Z,11.27
2023-03-04T22:24:18.778Z,11.93
2023-03-04T22:26:45.632Z,14.60
2023-03-04T22:29:12.580Z,13.13
2023-03-04T22:31:39.398Z,12.33
2023-03-04T22:34:12.896Z,13.13
2023-03-04T22:36:44.729Z,12.33
2023-03-04T22:39:15.453Z,12.23
2023-03-04T22:41:42.567Z,13.47
2023-03-04T22:44:09.328Z,14.13
2023-03-04T22:46:38.733Z,13.80
2023-03-04T22:49:09.841Z,14.10
2023-03-04T22:51:38.245Z,13.70
2023-03-04T22:54:05.061Z,13.87
2023-03-04T22:56:31.835Z,13.33
2023-03-04T22:58:58.759Z,12.97
2023-03-04T23:01:25.501Z,13.97
2023-03-04T23:03:52.277Z,13.93
2023-03-04T23:06:25.015Z,13.30
2023-03-04T23:08:52.532Z,13.30
2023-03-04T23:11:27.012Z,14.50
2023-03-04T23:13:55.663Z,14.43
2023-03-04T23:16:25.058Z,14.20
2023-03-04T23:18:53.184Z,14.23
2023-03-04T23:21:24.980Z,14.23
2023-03-04T23:23:53.001Z,14.27
2023-03-04T23:26:25.629Z,13.63
2023-03-04T23:28:55.484Z,13.67
2023-03-04T23:31:23.038Z,13.87
2023-03-04T23:33:49.979Z,13.60
2023-03-04T23:36:19.185Z,13.43
2023-03-04T23:38:48.641Z,13.57
2023-03-04T23:41:20.291Z,13.37
2023-03-04T23:43:48.485Z,13.50
2023-03-04T23:46:15.709Z,13.30
2023-03-04T23:48:46.188Z,13.37
2023-03-04T23:51:19.705Z,13.17
2023-03-04T23:53:46.994Z,13.63
2023-03-04T23:56:21.103Z,13.57
2023-03-04T23:58:48.293Z,15.50
